Bampton, United Kingdom
Current Conditions -  °F | °C
As of 11:50 AM on Friday 19 Dec 2014 (Local Time) from EGVN Reporting Station
Few Clouds Few Clouds  
Wind Chill: 44°   Ceiling: Unl
Heat Index: 48°   Visibility: 6mi
Dew Point: 36°   Wind: 9mph
Humidity: 62%   Direction: 260°W
Pressure: 30"   Gusts: NA
Location:  51.73°N, 1.55°W
Report Text: EGVN 191150Z 26008KT 9999 FEW040 09/02 Q1016 NOSIG
Loading
Personal Weather Stations






























Interactive Weather Map New forecast layout! Learn more

10-Day Weather Forecast

Advertisements
Track Severe Weather on mobile